Йошкар-Ола

Карта отелей и гостиниц, располагающихся рядом с аэропортом Йошкар-Ола :

Йошкар-Ола Марий Эл 56° 42' 18.18" N, 47° 53' 42.6588" E
Код аэродрома ИКАО
UWKJ
Код аэродрома RU
УВКЙ
Координаты
N56.70505° E047.89518°
Превышение над уровнем моря
106
Основная полоса
16L/34R
Курс магнитный
159,7/339,7
Длина основной ВПП
2400
Ширина основной ВПП
45
Покрытие основной ВПП
Твёрдое (асфальтобетон)
Освещение ВПП
Постоянное
Тип: 
Аэродром
Класс аэродрома: 
Принадлежность: 
ГА
Статус: 
Действующий
Сайт: 
http://www.reaa.ru/resource/slet2012/rus/main/index.htm
E-mail аэродрома: 
a-portmari@mail.ru
Страна: 
Россия
Регион: 
Марий Эл
Город: 
Дополнительная информация: 
При подходе по ПВП выход на связь осуществляется на R-40км. Военный индекс: XWKI / ЬВКИ.

Найти трансфер

С помощью этой формы Вы можете найти трансфер из аэропорта Йошкар-Ола в город, аэропорт или вокзал:

Карта места

Javascript is required to view this map.

Погода в аэропортах:

Авиационная погода в Екатеринбурге

Регион: 
Погода METAR: 
USSS 271200Z 12008MPS 4700 -SN DRSN BKN033 M18/M21 Q1013 R08R/820350 NOSIG RMK QFE740/0987
Время наблюдения
2021-02-27T12:00:00Z
Температура C
-18.0
Точка росы
-21.0
Направление ветра
120
Скорость ветра (узлы)
16
Метео видимость
2.92
Явления погоды
-SN DRSN
Условия полета
IFR
Аэропорт подробнее: 

Авиационная погода в Черновцах

Регион: 
Погода METAR: 
UKLN 270835Z 30006G11MPS 250V340 9999 -SHRA BKN013 BKN///CB 03/03 Q1023 R33/290360 NOSIG
Время наблюдения
2021-02-27T08:35:00Z
Температура C
3.0
Точка росы
3.0
Направление ветра
300
Скорость ветра (узлы)
12
Метео видимость
6.21
Явления погоды
-SHRA
Условия полета
MVFR
Аэропорт подробнее: 

Авиационная погода в Ульяновске

Регион: 
Погода METAR: 
UWLW 271200Z 01007MPS 2400 -SN OVC006 M09/M10 Q0998 R20/490535 NOSIG RMK QFE743
Время наблюдения
2021-02-27T12:00:00Z
Температура C
-9.0
Точка росы
-10.0
Направление ветра
10
Скорость ветра (узлы)
14
Метео видимость
1.49
Явления погоды
-SN
Условия полета
IFR
Аэропорт подробнее: 

Авиационная погода в Костанае

Регион: 
Погода METAR: 
UAUU 271200Z 13007MPS 2000 SN BLSN OVC031 M16/M19 Q1017 R15/420251 TEMPO 14009G14MPS 0500 +SN BLSN BKN003 RMK QFE746/0995
Время наблюдения
2021-02-27T12:00:00Z
Температура C
-16.0
Точка росы
-19.0
Направление ветра
130
Скорость ветра (узлы)
14
Метео видимость
1.24
Явления погоды
SN BLSN
Условия полета
IFR
Аэропорт подробнее: